CheckWX is a tool to help pilots better visualize weather data.  It is not intended as a substitute for an official pre-flight weather briefing.

08:14:50 UTC

KFWA METAR
Fort Wayne International Airport
Fort Wayne, Indiana, USA
Current

21 mins ago

KFWA 220754Z 00000KT 10SM FEW160 BKN240 M02/M04 A3034 RMK AO2 SLP282 T10221039
Observed
Feb-22 @ 07:54 UTC
Visibility
10 SM
Flight Rules
VFR
Cloud Levels
  • Few at 16,000' AGL
  • Broken at 24,000' AGL
Temperature
-2°C / 28°F
Dewpoint
-4°C / 25°F
Humidity
86%
Altimeter
30.34" Hg
Pressure
1028.2 hPa
Previous

1 hour ago

KFWA 220654Z 00000KT 10SM FEW180 BKN240 M01/M03 A3032 RMK AO2 SLP274 T10061028
Observed
Feb-22 @ 06:54 UTC
Visibility
10 SM
Flight Rules
VFR
Cloud Levels
  • Few at 18,000' AGL
  • Broken at 24,000' AGL
Temperature
-1°C / 30°F
Dewpoint
-3°C / 27°F
Humidity
86%
Altimeter
30.32" Hg
Pressure
1027.4 hPa
Previous

2 hours ago

KFWA 220554Z 00000KT 10SM FEW180 BKN230 M01/M03 A3030 RMK AO2 SLP267 T10061033 10017 21011 58002
Observed
Feb-22 @ 05:54 UTC
Visibility
10 SM
Flight Rules
VFR
Cloud Levels
  • Few at 18,000' AGL
  • Broken at 23,000' AGL
Temperature
-1°C / 30°F
Dewpoint
-3°C / 27°F
Humidity
86%
Altimeter
30.3" Hg
Pressure
1026.7 hPa